Time;durP1;ratioP1;P1;durP2;ratioP2;P2;SDS_P1;SDS_P2;PMS_P1;PMS_P2;Temp;Humidity;BMP_temperature;BMP_pressure;BME280_temperature;BME280_humidity;BME280_pressure;Samples;Min_cycle;Max_cycle;Signal;HPM_P1;HPM_P2
2023/01/31 00:01:12;;;;;;;29.20;4.85;;;4.70;99.90;;;;;;5055025;28;20040;-62
2023/01/31 00:03:40;;;;;;;23.33;3.75;;;4.70;99.90;;;;;;5054110;28;20048;-60
2023/01/31 00:06:27;;;;;;;25.55;3.88;;;4.70;99.90;;;;;;5052058;28;20040;-62
2023/01/31 00:08:53;;;;;;;20.13;3.35;;;4.60;99.90;;;;;;5050184;28;20645;-62
2023/01/31 00:11:22;;;;;;;24.92;4.00;;;4.60;99.90;;;;;;5034529;28;20048;-61
2023/01/31 00:13:49;;;;;;;24.60;3.67;;;4.50;99.90;;;;;;5053631;28;20174;-62
2023/01/31 00:16:16;;;;;;;30.17;4.47;;;4.50;99.90;;;;;;5036256;28;20036;-60
2023/01/31 00:18:42;;;;;;;20.08;3.10;;;4.50;99.90;;;;;;5053346;28;20127;-62
2023/01/31 00:21:18;;;;;;;18.65;3.38;;;4.50;99.90;;;;;;5049974;28;20086;-62
2023/01/31 00:23:45;;;;;;;23.90;3.50;;;4.50;99.90;;;;;;5046425;28;20060;-62
2023/01/31 00:26:15;;;;;;;16.27;2.92;;;4.40;99.90;;;;;;5047494;28;20531;-59
2023/01/31 00:28:42;;;;;;;21.40;3.20;;;4.40;99.90;;;;;;5052144;28;20059;-59
2023/01/31 00:31:10;;;;;;;22.88;4.00;;;4.40;99.90;;;;;;5035303;28;20067;-62
2023/01/31 00:33:37;;;;;;;25.98;3.75;;;4.40;99.90;;;;;;5046261;28;20502;-60
2023/01/31 00:36:17;;;;;;;28.73;4.28;;;4.40;99.90;;;;;;5054897;28;20537;-60
2023/01/31 00:38:44;;;;;;;18.38;3.28;;;4.40;99.90;;;;;;5035205;28;20044;-61
2023/01/31 00:41:10;;;;;;;20.38;4.35;;;4.40;99.90;;;;;;5060919;28;20093;-62
2023/01/31 00:43:36;;;;;;;23.65;3.42;;;4.40;99.90;;;;;;5063023;28;20041;-61
2023/01/31 00:46:03;;;;;;;21.25;4.90;;;4.40;99.90;;;;;;5058502;28;20392;-60
2023/01/31 00:48:29;;;;;;;17.75;2.70;;;4.40;99.90;;;;;;5049979;28;20044;-61
2023/01/31 00:50:55;;;;;;;19.85;3.47;;;4.40;99.90;;;;;;5032782;28;20064;-60
2023/01/31 00:53:22;;;;;;;21.77;4.00;;;4.40;99.90;;;;;;5046495;28;20525;-61
2023/01/31 00:55:53;;;;;;;21.58;3.17;;;4.40;99.90;;;;;;5035276;28;20063;-62
2023/01/31 00:58:19;;;;;;;19.00;3.60;;;4.40;99.90;;;;;;5048091;28;20029;-60
2023/01/31 01:00:45;;;;;;;19.70;3.20;;;4.40;99.90;;;;;;5056470;28;20036;-60
2023/01/31 01:03:11;;;;;;;15.50;2.67;;;4.30;99.90;;;;;;5053589;28;20040;-60
2023/01/31 01:05:37;;;;;;;29.10;3.50;;;4.40;99.90;;;;;;5041214;28;20453;-61
2023/01/31 01:08:03;;;;;;;20.48;3.30;;;4.40;99.90;;;;;;5049428;28;20192;-62
2023/01/31 01:10:29;;;;;;;19.60;3.85;;;4.30;99.90;;;;;;5050609;28;20449;-62
2023/01/31 01:12:55;;;;;;;23.65;3.45;;;4.20;99.90;;;;;;5056394;28;20049;-62
2023/01/31 01:15:21;;;;;;;14.38;3.55;;;4.20;99.90;;;;;;5038104;28;20044;-58
2023/01/31 01:17:46;;;;;;;21.90;5.25;;;4.10;99.90;;;;;;5047694;28;20464;-62
2023/01/31 01:20:12;;;;;;;24.60;5.40;;;4.10;99.90;;;;;;5036534;28;20703;-61
2023/01/31 01:22:38;;;;;;;22.00;4.38;;;4.00;99.90;;;;;;5054334;28;20301;-60
2023/01/31 01:25:05;;;;;;;21.58;4.18;;;4.00;99.90;;;;;;5056501;28;20256;-61
2023/01/31 01:27:30;;;;;;;19.95;4.38;;;4.00;99.90;;;;;;5049374;28;20109;-61
2023/01/31 01:29:57;;;;;;;20.73;3.45;;;4.00;99.90;;;;;;5050077;28;20512;-60
2023/01/31 01:32:23;;;;;;;17.23;4.47;;;4.00;99.90;;;;;;5062199;28;20048;-61
2023/01/31 01:34:49;;;;;;;19.25;3.75;;;4.00;99.90;;;;;;5033063;28;20121;-62
2023/01/31 01:37:21;;;;;;;27.65;3.47;;;4.00;99.90;;;;;;5057697;28;20048;-62
2023/01/31 01:39:48;;;;;;;21.13;3.17;;;4.00;99.90;;;;;;5054605;28;20101;-62
2023/01/31 01:42:16;;;;;;;20.00;3.10;;;4.00;99.90;;;;;;5053194;28;20134;-62
2023/01/31 01:44:41;;;;;;;17.38;3.00;;;4.00;99.90;;;;;;5050781;28;20055;-62
2023/01/31 01:47:13;;;;;;;19.73;3.25;;;4.00;99.90;;;;;;5053082;28;20359;-62
2023/01/31 01:49:39;;;;;;;20.27;3.38;;;4.10;99.90;;;;;;5051761;28;20041;-62
2023/01/31 01:52:08;;;;;;;19.00;3.33;;;4.10;99.90;;;;;;5056376;28;20745;-61
2023/01/31 01:54:40;;;;;;;17.95;3.13;;;4.10;99.90;;;;;;5050976;28;20048;-60
2023/01/31 01:57:07;;;;;;;25.30;3.85;;;4.20;99.90;;;;;;5053113;28;20431;-60
2023/01/31 01:59:38;;;;;;;31.88;4.35;;;4.20;99.90;;;;;;5056456;28;20071;-61
2023/01/31 02:02:04;;;;;;;20.10;2.90;;;4.20;99.90;;;;;;5054217;28;20040;-61
2023/01/31 02:04:34;;;;;;;18.25;3.60;;;4.20;99.90;;;;;;5051107;28;20037;-60
2023/01/31 02:07:01;;;;;;;25.98;4.95;;;4.20;99.90;;;;;;5046912;28;20086;-62
2023/01/31 02:09:46;;;;;;;15.23;2.75;;;4.30;99.90;;;;;;5045909;28;20097;-61
2023/01/31 02:12:12;;;;;;;20.63;3.13;;;4.30;99.90;;;;;;5058595;28;20520;-61
2023/01/31 02:14:38;;;;;;;17.50;2.60;;;4.30;99.90;;;;;;5053453;28;20067;-59
2023/01/31 02:17:04;;;;;;;15.52;2.97;;;4.40;99.90;;;;;;5056860;28;20108;-59
2023/01/31 02:19:54;;;;;;;19.08;4.57;;;4.40;99.90;;;;;;5052956;28;20139;-60
2023/01/31 02:22:45;;;;;;;20.10;3.20;;;4.50;99.90;;;;;;5054609;28;20054;-60
2023/01/31 02:25:31;;;;;;;20.50;3.63;;;4.50;99.90;;;;;;5055985;28;20098;-62
2023/01/31 02:28:09;;;;;;;20.60;2.85;;;4.60;99.90;;;;;;5070656;28;20048;-61
2023/01/31 02:30:53;;;;;;;18.80;3.33;;;4.60;99.90;;;;;;5053653;28;20121;-61
2023/01/31 02:33:29;;;;;;;17.05;3.22;;;4.60;99.90;;;;;;5047353;28;20087;-61
2023/01/31 02:36:30;;;;;;;19.63;3.33;;;4.60;99.90;;;;;;5049993;28;20439;-61
2023/01/31 02:39:19;;;;;;;17.88;3.05;;;4.60;99.90;;;;;;5055053;28;20076;-61
2023/01/31 02:41:50;;;;;;;17.98;2.90;;;4.60;99.90;;;;;;5046646;28;20430;-60
2023/01/31 02:47:38;;;;;;;14.57;2.72;;;4.50;99.90;;;;;;5054972;28;20534;-61
2023/01/31 02:50:14;;;;;;;13.73;3.45;;;4.50;99.90;;;;;;5041653;28;20463;-61
2023/01/31 02:52:51;;;;;;;13.68;2.70;;;4.50;99.90;;;;;;5048249;28;20045;-62
2023/01/31 02:58:32;;;;;;;20.33;3.83;;;4.50;99.90;;;;;;5052694;28;20045;-61
2023/01/31 03:01:02;;;;;;;15.77;2.53;;;4.50;99.90;;;;;;5058227;28;20119;-62
2023/01/31 03:03:32;;;;;;;13.50;2.92;;;4.50;99.90;;;;;;5041196;28;20045;-62
2023/01/31 03:06:22;;;;;;;11.48;2.33;;;4.60;99.90;;;;;;5050742;28;20049;-59
2023/01/31 03:08:52;;;;;;;16.75;3.03;;;4.60;99.90;;;;;;5049688;28;20049;-61
2023/01/31 03:11:20;;;;;;;25.83;4.05;;;4.60;99.90;;;;;;5055327;28;20052;-60
2023/01/31 03:13:53;;;;;;;19.50;3.00;;;4.60;99.90;;;;;;5056356;28;20467;-61
2023/01/31 03:19:31;;;;;;;24.88;3.78;;;4.70;99.90;;;;;;5055903;28;20045;-61
2023/01/31 03:22:04;;;;;;;16.67;2.65;;;4.80;99.90;;;;;;5049731;28;21595;-60
2023/01/31 03:24:30;;;;;;;33.35;6.22;;;4.80;99.90;;;;;;5048998;28;20663;-61
2023/01/31 03:26:59;;;;;;;20.35;3.80;;;4.80;99.90;;;;;;5031500;28;20331;-62
2023/01/31 03:29:27;;;;;;;18.77;3.90;;;4.80;99.90;;;;;;5057919;28;20395;-62
2023/01/31 03:31:54;;;;;;;18.35;2.90;;;4.80;99.90;;;;;;5050332;28;20084;-61
2023/01/31 03:34:20;;;;;;;22.40;3.25;;;4.90;99.90;;;;;;5056545;28;20233;-61
2023/01/31 03:37:01;;;;;;;24.38;3.75;;;4.90;99.90;;;;;;5057166;28;20509;-60
2023/01/31 03:39:51;;;;;;;22.17;3.90;;;4.90;99.90;;;;;;5036554;28;20064;-61
2023/01/31 03:42:51;;;;;;;15.35;3.85;;;5.00;99.90;;;;;;5059231;28;20451;-62
2023/01/31 03:45:27;;;;;;;28.02;4.07;;;5.00;99.90;;;;;;5033013;28;20088;-60
2023/01/31 03:47:55;;;;;;;23.38;4.00;;;5.10;99.90;;;;;;5049743;28;20076;-61
2023/01/31 03:50:29;;;;;;;28.27;6.35;;;5.10;99.90;;;;;;5056697;28;20068;-62
2023/01/31 03:53:11;;;;;;;21.08;3.28;;;5.10;99.90;;;;;;5049889;28;20032;-61
2023/01/31 03:56:01;;;;;;;28.25;4.13;;;5.20;99.90;;;;;;5053676;28;20398;-61
2023/01/31 03:58:31;;;;;;;21.20;3.80;;;5.20;99.90;;;;;;5052344;28;20116;-61
2023/01/31 04:01:00;;;;;;;24.10;4.45;;;5.20;99.90;;;;;;5055108;28;20059;-59
2023/01/31 04:03:40;;;;;;;24.30;3.78;;;5.30;99.90;;;;;;5055924;28;20041;-62
2023/01/31 04:06:08;;;;;;;21.15;4.45;;;5.30;99.90;;;;;;5049419;28;20548;-61
2023/01/31 04:08:34;;;;;;;28.15;4.60;;;5.40;99.90;;;;;;5047919;28;20040;-62
2023/01/31 04:11:07;;;;;;;23.30;5.07;;;5.40;99.90;;;;;;5054580;28;20094;-61
2023/01/31 04:13:33;;;;;;;32.00;4.32;;;5.40;99.90;;;;;;5052491;28;20101;-62
2023/01/31 04:15:59;;;;;;;25.90;6.10;;;5.40;99.90;;;;;;5041756;28;20033;-61
2023/01/31 04:18:25;;;;;;;24.75;4.18;;;5.40;99.90;;;;;;5052784;28;20040;-61
2023/01/31 04:20:50;;;;;;;18.05;4.97;;;5.40;99.90;;;;;;5061837;28;20040;-62
2023/01/31 04:23:17;;;;;;;35.65;5.10;;;5.40;99.90;;;;;;5061316;28;20080;-60
2023/01/31 04:25:43;;;;;;;28.48;5.40;;;5.40;99.90;;;;;;5057350;28;20048;-61
2023/01/31 04:28:09;;;;;;;28.17;5.35;;;5.40;99.90;;;;;;5061496;28;20040;-61
2023/01/31 04:30:35;;;;;;;31.13;4.93;;;5.50;99.90;;;;;;5066320;28;20044;-61
2023/01/31 04:33:00;;;;;;;30.70;5.65;;;5.50;99.90;;;;;;5056270;28;20036;-61
2023/01/31 04:35:26;;;;;;;22.88;4.30;;;5.50;99.90;;;;;;5060012;28;20052;-61
2023/01/31 04:37:52;;;;;;;23.20;4.90;;;5.50;99.90;;;;;;5059192;28;20403;-62
2023/01/31 04:40:18;;;;;;;19.52;4.15;;;5.50;99.90;;;;;;5027825;28;20468;-62
2023/01/31 04:42:43;;;;;;;29.30;4.95;;;5.60;99.90;;;;;;5043137;28;20510;-61
2023/01/31 04:45:10;;;;;;;24.08;5.57;;;5.50;99.90;;;;;;5060378;28;20491;-61
2023/01/31 04:47:35;;;;;;;29.88;4.68;;;5.50;99.90;;;;;;5057940;28;20056;-61
2023/01/31 04:50:01;;;;;;;26.98;5.82;;;5.50;99.90;;;;;;5057059;28;20281;-62
2023/01/31 04:52:27;;;;;;;32.15;6.13;;;5.50;99.90;;;;;;5036742;28;20045;-62
2023/01/31 04:54:53;;;;;;;23.95;4.25;;;5.50;99.90;;;;;;5059326;28;20051;-62
2023/01/31 04:57:19;;;;;;;35.20;6.32;;;5.50;99.90;;;;;;5049317;28;20132;-62
2023/01/31 04:59:44;;;;;;;29.02;6.18;;;5.50;99.90;;;;;;5038519;28;20495;-61
2023/01/31 05:02:13;;;;;;;25.33;6.07;;;5.50;99.90;;;;;;5048217;28;20032;-60
2023/01/31 05:04:39;;;;;;;28.50;4.88;;;5.50;99.90;;;;;;5059314;28;20049;-62
2023/01/31 05:07:05;;;;;;;34.10;5.85;;;5.50;99.90;;;;;;5048478;28;20453;-61
2023/01/31 05:09:31;;;;;;;33.97;5.78;;;5.60;99.90;;;;;;5050848;28;20043;-61
2023/01/31 05:11:56;;;;;;;25.98;6.07;;;5.60;99.90;;;;;;5053568;28;20120;-62
2023/01/31 05:14:22;;;;;;;29.63;5.10;;;5.60;99.90;;;;;;5057890;28;20040;-60
2023/01/31 05:16:48;;;;;;;30.48;5.68;;;5.60;99.90;;;;;;5046455;28;20049;-59
2023/01/31 05:19:14;;;;;;;30.63;5.47;;;5.60;99.90;;;;;;5052723;28;20037;-61
2023/01/31 05:21:59;;;;;;;33.33;4.82;;;5.60;99.90;;;;;;5055856;28;20075;-62
2023/01/31 05:24:29;;;;;;;24.63;4.78;;;5.60;99.90;;;;;;5038553;28;20267;-62
2023/01/31 05:27:00;;;;;;;26.25;5.05;;;5.60;99.90;;;;;;5059595;28;20040;-62
2023/01/31 05:29:27;;;;;;;31.77;5.43;;;5.60;99.90;;;;;;5053480;28;20134;-62
2023/01/31 05:31:55;;;;;;;33.78;5.20;;;5.60;99.90;;;;;;5057197;28;20067;-62
2023/01/31 05:34:24;;;;;;;28.27;5.95;;;5.60;99.90;;;;;;5057225;28;20051;-62
2023/01/31 05:36:52;;;;;;;23.27;6.25;;;5.60;99.90;;;;;;5041670;28;20045;-61
2023/01/31 05:39:18;;;;;;;30.80;6.13;;;5.60;99.90;;;;;;5056507;28;20073;-61
2023/01/31 05:41:43;;;;;;;37.30;5.95;;;5.60;99.90;;;;;;5054381;28;20064;-61
2023/01/31 05:44:10;;;;;;;38.63;5.65;;;5.70;99.90;;;;;;5056795;28;20044;-62
2023/01/31 05:46:37;;;;;;;34.78;6.38;;;5.70;99.90;;;;;;5054538;28;20186;-61
2023/01/31 05:49:03;;;;;;;25.92;5.47;;;5.80;99.90;;;;;;5058604;28;20178;-62
2023/01/31 05:51:29;;;;;;;29.35;5.53;;;5.80;99.90;;;;;;5058373;28;20135;-61
2023/01/31 05:53:55;;;;;;;28.58;6.85;;;5.80;99.90;;;;;;5042167;28;20523;-62
2023/01/31 05:56:21;;;;;;;30.95;6.30;;;5.80;99.90;;;;;;5056085;28;20059;-62
2023/01/31 05:58:49;;;;;;;29.83;5.88;;;5.80;99.90;;;;;;5057558;28;20626;-62
2023/01/31 06:01:24;;;;;;;28.45;7.82;;;5.80;99.90;;;;;;5056316;28;20041;-62
2023/01/31 06:03:50;;;;;;;35.15;7.38;;;5.90;99.90;;;;;;5055844;28;20052;-60
2023/01/31 06:06:16;;;;;;;30.98;7.05;;;5.90;99.90;;;;;;5061901;28;20037;-62
2023/01/31 06:08:42;;;;;;;33.13;6.00;;;5.90;99.90;;;;;;5060248;28;20056;-59
2023/01/31 06:11:10;;;;;;;33.13;6.82;;;5.90;99.90;;;;;;5057629;28;20188;-60
2023/01/31 06:13:37;;;;;;;29.30;5.80;;;5.90;99.90;;;;;;5055761;28;20047;-60
2023/01/31 06:16:03;;;;;;;25.75;5.50;;;6.00;99.90;;;;;;5058981;28;20395;-62
2023/01/31 06:18:28;;;;;;;32.38;6.88;;;5.90;99.90;;;;;;5052408;28;20075;-61
2023/01/31 06:20:54;;;;;;;30.50;6.30;;;6.00;99.90;;;;;;5065771;28;20078;-59
2023/01/31 06:23:20;;;;;;;23.88;5.90;;;6.00;99.90;;;;;;5035672;28;20053;-59
2023/01/31 06:25:50;;;;;;;25.52;4.95;;;6.00;99.90;;;;;;5052542;28;20456;-62
2023/01/31 06:28:17;;;;;;;29.08;5.80;;;6.00;99.90;;;;;;5051537;28;20037;-62
2023/01/31 06:30:43;;;;;;;21.20;4.63;;;6.00;99.90;;;;;;5054953;28;20045;-62
2023/01/31 06:33:10;;;;;;;28.42;5.43;;;6.10;99.90;;;;;;5061094;28;20098;-62
2023/01/31 06:35:36;;;;;;;32.33;7.78;;;6.10;99.90;;;;;;5039043;28;20111;-61
2023/01/31 06:38:02;;;;;;;17.10;4.13;;;6.10;99.90;;;;;;5050721;28;20049;-61
2023/01/31 06:40:29;;;;;;;24.92;3.95;;;6.20;99.90;;;;;;5056108;28;20040;-62
2023/01/31 06:42:56;;;;;;;21.70;3.92;;;6.20;99.90;;;;;;5055720;28;20048;-62
2023/01/31 06:45:22;;;;;;;26.92;4.38;;;6.20;99.90;;;;;;5057297;28;20467;-62
2023/01/31 06:47:47;;;;;;;20.40;4.32;;;6.20;99.90;;;;;;5052159;28;20080;-62
2023/01/31 06:50:14;;;;;;;31.17;4.88;;;6.20;99.90;;;;;;5056006;28;20075;-61
2023/01/31 06:52:40;;;;;;;22.02;3.55;;;6.20;99.90;;;;;;5043188;28;20048;-58
2023/01/31 06:55:07;;;;;;;21.30;3.92;;;6.20;99.90;;;;;;5054117;28;20124;-62
2023/01/31 06:57:33;;;;;;;24.02;4.60;;;6.30;99.90;;;;;;5053962;28;20036;-61
2023/01/31 06:59:58;;;;;;;25.48;3.30;;;6.30;99.90;;;;;;5056524;28;20044;-62
2023/01/31 07:02:24;;;;;;;16.13;4.35;;;6.20;99.90;;;;;;5044742;28;20089;-62
2023/01/31 07:04:51;;;;;;;17.40;3.58;;;6.20;99.90;;;;;;5053199;28;20291;-60
2023/01/31 07:07:17;;;;;;;22.60;3.72;;;6.20;99.90;;;;;;5036497;28;20414;-61
2023/01/31 07:09:43;;;;;;;25.23;4.68;;;6.30;99.90;;;;;;5054258;28;20519;-62
2023/01/31 07:12:08;;;;;;;28.75;5.15;;;6.20;99.90;;;;;;5057312;28;20068;-62
2023/01/31 07:14:34;;;;;;;19.95;3.70;;;6.20;99.90;;;;;;5056665;28;20584;-60
2023/01/31 07:17:00;;;;;;;21.63;3.42;;;6.20;99.90;;;;;;5039076;28;20111;-60
2023/01/31 07:19:26;;;;;;;22.17;3.75;;;6.20;99.90;;;;;;5055604;28;20032;-62
2023/01/31 07:21:51;;;;;;;20.50;5.30;;;6.20;99.90;;;;;;5061079;28;20037;-62
2023/01/31 07:24:17;;;;;;;18.00;4.20;;;6.20;99.90;;;;;;5062862;28;20063;-62
2023/01/31 07:26:43;;;;;;;14.70;3.33;;;6.20;99.90;;;;;;5059863;28;20067;-61
2023/01/31 07:29:10;;;;;;;20.00;4.03;;;6.20;99.90;;;;;;5058218;28;20048;-62
2023/01/31 07:31:37;;;;;;;18.23;3.92;;;6.20;99.90;;;;;;5048776;28;20076;-61
2023/01/31 07:34:02;;;;;;;22.00;3.08;;;6.20;99.90;;;;;;5067259;28;20047;-62
2023/01/31 07:36:28;;;;;;;15.18;3.70;;;6.20;99.90;;;;;;5064682;28;20234;-62
2023/01/31 07:38:56;;;;;;;18.17;3.20;;;6.20;99.90;;;;;;5066078;28;20025;-62
2023/01/31 07:41:25;;;;;;;17.25;3.15;;;6.20;99.90;;;;;;5061521;28;20086;-60
2023/01/31 07:43:51;;;;;;;16.33;3.25;;;6.20;99.90;;;;;;5061217;28;20075;-62
2023/01/31 07:46:17;;;;;;;25.02;3.40;;;6.20;99.90;;;;;;5064681;28;20047;-62
2023/01/31 07:48:43;;;;;;;19.67;2.97;;;6.20;99.90;;;;;;5064811;28;20040;-62
2023/01/31 07:51:10;;;;;;;19.23;3.83;;;6.20;99.90;;;;;;5064988;28;20178;-61
2023/01/31 07:53:41;;;;;;;11.73;3.17;;;6.20;99.90;;;;;;5056318;28;21631;-61
2023/01/31 07:56:12;;;;;;;15.18;2.97;;;6.30;99.90;;;;;;5060489;28;20040;-61
2023/01/31 07:58:40;;;;;;;19.08;3.92;;;6.30;99.90;;;;;;5056941;28;20332;-61
2023/01/31 08:03:51;;;;;;;16.42;3.40;;;6.30;99.90;;;;;;5055422;28;20465;-62
2023/01/31 08:06:17;;;;;;;18.58;4.25;;;6.30;99.90;;;;;;5042051;28;20127;-62
2023/01/31 08:08:44;;;;;;;22.92;5.53;;;6.40;99.90;;;;;;5066341;28;20123;-63
2023/01/31 08:11:10;;;;;;;20.67;3.67;;;6.40;99.90;;;;;;5060661;28;20558;-60
2023/01/31 08:13:37;;;;;;;21.17;4.80;;;6.40;99.90;;;;;;5064177;28;20064;-61
2023/01/31 08:16:05;;;;;;;25.40;3.97;;;6.50;99.90;;;;;;5058603;28;20462;-62
2023/01/31 08:18:31;;;;;;;20.88;5.57;;;6.40;99.90;;;;;;5061049;28;20089;-62
2023/01/31 08:20:58;;;;;;;15.43;3.20;;;6.50;99.90;;;;;;5044133;28;21249;-62
2023/01/31 08:23:23;;;;;;;24.85;5.00;;;6.50;99.90;;;;;;5044065;28;20102;-61
2023/01/31 08:25:49;;;;;;;17.63;3.78;;;6.50;99.90;;;;;;5061307;28;20262;-62
2023/01/31 08:28:15;;;;;;;17.98;4.55;;;6.50;99.90;;;;;;5057845;28;20045;-62
2023/01/31 08:30:42;;;;;;;21.90;4.30;;;6.50;99.90;;;;;;5050307;28;20044;-62
2023/01/31 08:33:10;;;;;;;28.73;5.00;;;6.50;99.90;;;;;;5048956;28;20057;-59
2023/01/31 08:35:36;;;;;;;18.55;4.07;;;6.50;99.90;;;;;;5051271;28;20395;-62
2023/01/31 08:38:03;;;;;;;21.58;3.35;;;6.60;99.90;;;;;;5040859;28;20036;-61
2023/01/31 08:40:29;;;;;;;18.02;3.78;;;6.60;99.90;;;;;;5062092;28;20044;-61
2023/01/31 08:42:59;;;;;;;23.33;4.35;;;6.50;99.90;;;;;;5047541;28;20101;-62
2023/01/31 08:45:28;;;;;;;19.08;5.70;;;6.60;99.90;;;;;;5042724;28;20127;-62
2023/01/31 08:47:55;;;;;;;26.00;3.97;;;6.60;99.90;;;;;;5062147;28;20139;-60
2023/01/31 08:50:22;;;;;;;31.50;6.00;;;6.60;99.90;;;;;;5060435;22;20045;-77
2023/01/31 08:52:53;;;;;;;26.73;4.80;;;6.60;99.90;;;;;;5032224;28;20034;-80
2023/01/31 08:55:18;;;;;;;20.50;3.55;;;6.80;99.90;;;;;;5091253;22;20040;-80
2023/01/31 08:57:44;;;;;;;26.70;4.07;;;6.60;99.90;;;;;;5055641;28;20042;-81
2023/01/31 09:00:11;;;;;;;18.90;4.05;;;6.70;99.90;;;;;;5071557;28;20046;-80
2023/01/31 09:02:37;;;;;;;27.13;5.80;;;6.60;99.90;;;;;;5065232;28;20061;-79
2023/01/31 09:05:04;;;;;;;27.88;4.57;;;6.70;99.90;;;;;;5071597;28;20043;-80
2023/01/31 09:07:29;;;;;;;35.40;4.88;;;6.70;99.90;;;;;;5066820;28;20047;-80
2023/01/31 09:09:55;;;;;;;22.45;4.25;;;6.70;99.90;;;;;;5070478;28;20565;-80
2023/01/31 09:12:21;;;;;;;32.70;4.13;;;6.80;99.90;;;;;;5051302;28;20048;-82
2023/01/31 09:14:49;;;;;;;24.73;3.72;;;6.90;99.90;;;;;;5068627;28;20503;-80
2023/01/31 09:17:14;;;;;;;20.80;4.72;;;6.80;99.90;;;;;;5073288;28;20032;-80
2023/01/31 09:19:40;;;;;;;31.08;4.25;;;6.90;99.90;;;;;;5080413;28;20042;-79
2023/01/31 09:22:06;;;;;;;30.38;4.90;;;6.90;99.90;;;;;;5069068;28;20074;-80
2023/01/31 09:24:34;;;;;;;29.08;5.20;;;6.90;99.90;;;;;;5066576;28;20542;-81
2023/01/31 09:26:59;;;;;;;20.00;4.18;;;7.00;99.90;;;;;;5069384;28;20068;-82
2023/01/31 09:29:26;;;;;;;32.67;5.95;;;7.00;99.90;;;;;;5082379;28;20039;-81
2023/01/31 09:31:55;;;;;;;21.75;5.03;;;7.00;99.90;;;;;;5085926;28;20503;-81
2023/01/31 09:34:21;;;;;;;27.90;4.10;;;7.00;99.90;;;;;;5069050;22;20174;-56
2023/01/31 09:36:47;;;;;;;25.70;4.25;;;7.00;99.90;;;;;;5077603;28;20024;-57
2023/01/31 09:39:13;;;;;;;25.40;4.55;;;7.00;99.90;;;;;;5055424;28;20146;-56
2023/01/31 09:41:48;;;;;;;27.05;4.45;;;7.00;99.90;;;;;;5076870;28;20540;-58
2023/01/31 09:44:22;;;;;;;21.33;5.93;;;7.00;99.90;;;;;;5062739;28;20035;-59
2023/01/31 09:46:58;;;;;;;23.25;3.80;;;7.00;99.90;;;;;;5089712;28;20073;-58
2023/01/31 09:49:31;;;;;;;26.17;4.43;;;7.00;99.90;;;;;;5059860;28;20036;-60
2023/01/31 09:52:00;;;;;;;26.85;4.53;;;7.00;99.90;;;;;;5075555;28;20135;-58
2023/01/31 09:54:38;;;;;;;21.42;4.82;;;7.10;99.90;;;;;;5057987;28;20528;-57
2023/01/31 09:57:03;;;;;;;25.95;4.90;;;7.10;99.90;;;;;;5068519;28;20039;-59
2023/01/31 10:00:18;;;;;;;21.15;4.88;;;7.00;99.90;;;;;;5076285;28;20054;-53
2023/01/31 10:02:55;;;;;;;24.10;4.43;;;7.10;99.90;;;;;;5060136;28;20058;-56
2023/01/31 10:05:38;;;;;;;33.42;4.70;;;7.10;99.90;;;;;;5073083;28;20082;-58
2023/01/31 10:08:25;;;;;;;31.00;5.80;;;7.00;99.90;;;;;;5078180;28;20051;-58
2023/01/31 10:10:56;;;;;;;23.58;4.40;;;7.00;99.90;;;;;;5073889;28;20059;-59
2023/01/31 10:13:35;;;;;;;28.17;4.50;;;7.10;99.90;;;;;;5067608;28;20529;-57
2023/01/31 10:16:23;;;;;;;28.33;3.83;;;7.00;99.90;;;;;;5078110;28;20397;-58
2023/01/31 10:19:00;;;;;;;26.08;4.30;;;7.00;99.90;;;;;;5076655;28;20137;-57
2023/01/31 10:21:48;;;;;;;26.10;5.05;;;7.00;99.90;;;;;;5083570;27;20482;-56
2023/01/31 10:24:25;;;;;;;23.67;4.57;;;7.00;99.90;;;;;;5056359;28;20123;-59
2023/01/31 10:26:54;;;;;;;23.88;4.60;;;7.10;99.90;;;;;;5076355;28;20145;-58
2023/01/31 10:29:30;;;;;;;28.63;4.00;;;7.10;99.90;;;;;;5076170;28;20105;-57
2023/01/31 10:32:03;;;;;;;25.27;4.30;;;7.10;99.90;;;;;;5076197;28;20149;-57
2023/01/31 10:34:42;;;;;;;18.73;4.07;;;7.10;99.90;;;;;;5065322;28;20042;-59
2023/01/31 10:37:08;;;;;;;27.55;4.43;;;7.10;99.90;;;;;;5086115;28;20040;-58
2023/01/31 10:39:43;;;;;;;25.17;4.28;;;7.20;99.90;;;;;;5080075;28;20050;-59
2023/01/31 10:42:30;;;;;;;33.80;5.55;;;7.20;99.90;;;;;;5061296;28;20059;-57
2023/01/31 10:45:08;;;;;;;30.42;4.28;;;7.20;99.90;;;;;;5080976;28;20283;-59
2023/01/31 10:47:38;;;;;;;26.05;5.03;;;7.20;99.90;;;;;;5071955;28;20092;-58
2023/01/31 10:50:33;;;;;;;34.10;4.63;;;7.30;99.90;;;;;;5095873;28;20502;-57
2023/01/31 10:53:14;;;;;;;32.45;5.55;;;7.30;99.90;;;;;;5082463;28;20093;-58
2023/01/31 10:56:02;;;;;;;26.70;4.30;;;7.30;99.90;;;;;;5087556;28;20285;-59
2023/01/31 10:58:28;;;;;;;38.20;4.50;;;7.30;99.90;;;;;;5073835;28;20042;-56
2023/01/31 11:00:54;;;;;;;27.35;4.63;;;7.40;99.90;;;;;;5091313;28;20043;-59
2023/01/31 11:03:20;;;;;;;31.40;6.13;;;7.40;99.90;;;;;;5047392;28;20042;-58
2023/01/31 11:05:52;;;;;;;27.40;6.35;;;7.40;99.90;;;;;;5059880;28;20097;-57
2023/01/31 11:08:27;;;;;;;24.38;4.35;;;7.40;99.90;;;;;;5076504;28;20122;-58
2023/01/31 11:10:55;;;;;;;22.85;4.25;;;7.40;99.90;;;;;;5080061;28;20040;-59
2023/01/31 11:13:21;;;;;;;23.45;4.32;;;7.40;99.90;;;;;;5082983;28;20047;-54
2023/01/31 11:15:47;;;;;;;21.90;4.90;;;7.40;99.90;;;;;;5056846;28;20126;-58
2023/01/31 11:18:25;;;;;;;20.48;3.75;;;7.50;99.90;;;;;;5065471;28;20282;-57
2023/01/31 11:20:50;;;;;;;29.20;4.60;;;7.60;99.90;;;;;;5077461;28;20123;-56
2023/01/31 11:23:22;;;;;;;24.63;4.07;;;7.50;99.90;;;;;;5059622;28;20302;-58
2023/01/31 11:25:50;;;;;;;34.03;5.60;;;7.50;99.90;;;;;;5075007;28;20050;-59
2023/01/31 11:28:23;;;;;;;23.63;5.05;;;7.60;99.90;;;;;;5083565;28;20054;-58
2023/01/31 11:30:51;;;;;;;28.00;4.80;;;7.60;99.90;;;;;;5077163;28;20131;-57
2023/01/31 11:33:44;;;;;;;23.08;4.53;;;7.60;99.90;;;;;;5059206;28;20359;-58
2023/01/31 11:36:22;;;;;;;33.55;5.82;;;7.70;99.90;;;;;;5078986;28;20402;-56
2023/01/31 11:38:49;;;;;;;24.33;4.90;;;7.70;99.90;;;;;;5050153;28;20123;-57
2023/01/31 11:41:29;;;;;;;22.13;4.10;;;7.80;99.90;;;;;;5061994;28;20039;-58
2023/01/31 11:44:17;;;;;;;28.67;4.85;;;7.90;99.90;;;;;;5076988;28;20032;-57
2023/01/31 11:46:55;;;;;;;17.63;3.90;;;7.90;99.90;;;;;;5058010;28;20107;-56
2023/01/31 11:49:35;;;;;;;26.50;6.03;;;8.00;99.90;;;;;;5064453;27;20040;-57
2023/01/31 11:52:12;;;;;;;25.65;4.32;;;8.10;99.90;;;;;;5076418;28;20164;-58
2023/01/31 11:54:42;;;;;;;21.88;4.53;;;8.10;99.90;;;;;;5069894;28;20032;-56
2023/01/31 11:57:20;;;;;;;23.65;4.70;;;8.10;99.90;;;;;;5078102;28;20366;-56
2023/01/31 11:59:49;;;;;;;25.23;4.13;;;8.20;99.90;;;;;;5063840;28;20044;-58
2023/01/31 12:02:26;;;;;;;21.67;3.92;;;8.20;99.90;;;;;;5054963;28;20036;-57
2023/01/31 12:04:53;;;;;;;17.40;3.88;;;8.20;99.90;;;;;;5073021;28;20031;-56
2023/01/31 12:07:25;;;;;;;26.42;5.03;;;8.20;99.90;;;;;;5072252;28;20082;-58
2023/01/31 12:09:51;;;;;;;23.52;4.70;;;8.30;99.90;;;;;;5076858;28;20047;-57
2023/01/31 12:12:35;;;;;;;30.58;6.28;;;8.30;99.90;;;;;;5074140;28;20059;-57
2023/01/31 12:15:04;;;;;;;26.52;4.75;;;8.30;99.90;;;;;;5073719;28;20290;-58
2023/01/31 12:17:39;;;;;;;14.82;4.32;;;8.40;99.90;;;;;;5059067;28;20114;-56
2023/01/31 12:20:11;;;;;;;19.40;4.30;;;8.40;99.90;;;;;;5069299;28;20058;-58
2023/01/31 12:22:52;;;;;;;24.73;4.78;;;8.40;99.90;;;;;;5080067;27;20039;-58
2023/01/31 12:26:01;;;;;;;24.77;5.50;;;8.50;99.90;;;;;;5085365;28;20494;-57
2023/01/31 12:29:16;;;;;;;19.17;4.80;;;8.70;99.90;;;;;;4999217;28;20037;-56
2023/01/31 12:32:02;;;;;;;23.70;4.10;;;8.80;99.90;;;;;;4946834;28;20061;-58
2023/01/31 12:34:52;;;;;;;19.00;4.25;;;8.90;99.90;;;;;;5068406;28;20055;-58
2023/01/31 12:37:45;;;;;;;13.20;3.80;;;8.90;99.90;;;;;;5076177;28;20047;-57
2023/01/31 12:40:29;;;;;;;24.08;4.30;;;8.90;99.90;;;;;;5072909;28;20606;-56
2023/01/31 12:43:16;;;;;;;27.50;3.72;;;9.00;99.90;;;;;;5079059;28;20044;-58
2023/01/31 12:46:12;;;;;;;19.00;3.63;;;9.00;99.90;;;;;;5075771;28;20051;-58
2023/01/31 12:48:56;;;;;;;21.08;4.65;;;8.90;99.90;;;;;;5083872;27;20040;-56
2023/01/31 12:51:38;;;;;;;20.55;4.78;;;8.90;99.90;;;;;;5070665;28;20062;-57
2023/01/31 12:54:24;;;;;;;20.70;4.22;;;9.00;99.90;;;;;;5075997;28;20040;-57
2023/01/31 12:57:28;;;;;;;22.25;4.05;;;9.00;99.90;;;;;;5077580;28;20151;-58
2023/01/31 13:00:03;;;;;;;25.50;4.88;;;9.00;99.90;;;;;;5093179;27;20789;-58
2023/01/31 13:02:43;;;;;;;20.25;5.50;;;8.90;99.90;;;;;;5081472;28;20067;-58
2023/01/31 13:05:09;;;;;;;17.73;3.67;;;8.90;99.90;;;;;;5048734;28;20672;-57
2023/01/31 13:07:44;;;;;;;18.15;4.50;;;8.90;99.90;;;;;;5078744;28;20557;-58
2023/01/31 13:10:44;;;;;;;21.42;4.03;;;8.80;99.90;;;;;;5077612;28;20081;-59
2023/01/31 13:13:32;;;;;;;19.52;4.43;;;8.80;99.90;;;;;;5083534;28;20090;-58
2023/01/31 13:16:16;;;;;;;17.45;3.40;;;8.80;99.90;;;;;;5077309;28;20047;-57
2023/01/31 13:18:44;;;;;;;;;;;8.80;99.90;;;;;;5074105;28;20048;-58
2023/01/31 13:21:15;;;;;;;21.20;4.68;;;8.80;99.90;;;;;;5075253;28;19928;-58